• Join FlightAware (Why Join?)
  • Login
  • US Flag 
11:42PM EDT


 

Airport Tracker/Info


-or-


 

Live Flight TrackerFlight Track Log ✈ SKW6273 ✈ 21-Jun-2013 ✈ CYYC - KSFO

Flight Track Log - Related Links

Times and Time Zones

All times are in EDT time to prevent confusion due to time zone crossing. See the SKW6273 flight status page for this flight to view local times or setup timezone preferences in your user account.

Time Position Orientation Groundspeed Altitude Reporting Facility
EDT Latitude Longitude Course Direction KTS MPH feet Rate Location/Type
09:43AM 51.1000 -114.0333 188° South 160 184 4,700  Level Edmonton Center
09:44AM 51.1667 -114.0500 351° North 210 242 6,700 2,100 Climbing Edmonton Center
09:45AM 50.7909 -114.2793 194° South  Level Estimated
09:45AM 51.2000 -114.1167 309° West 240 276 9,000  Level Edmonton Center
09:46AM 50.6716 -114.2505 171° South  Level FlightAware Approximate
09:46AM 51.1333 -114.1833 212° Southwest 290 334 10,500  Level Edmonton Center
09:47AM 50.5641 -114.3368 196° South  Level Estimated
09:47AM 51.0500 -114.2167 194° South 330 380 12,300  Level Edmonton Center
09:48AM 50.4519 -114.3615 188° South  Level FlightAware Approximate
09:48AM 50.9500 -114.2500 192° South 340 391 14,500  Level Edmonton Center
09:49AM 50.8667 -114.2833 194° South 360 414 16,200 1,680 Climbing Edmonton Center
09:50AM 50.7500 -114.3167 190° South 370 426 17,900 1,500 Climbing Edmonton Center
09:51AM 50.6500 -114.3667 198° South 370 426 19,200 1,380 Climbing Edmonton Center
09:52AM 50.5667 -114.4000 194° South 380 437 20,700 1,200 Climbing Edmonton Center
09:53AM 50.4333 -114.4333 189° South 380 437 21,700 1,200 Climbing Edmonton Center
09:54AM 50.3333 -114.4667 192° South 390 449 23,100 1,380 Climbing Edmonton Center
09:55AM 50.2333 -114.5167 198° South 410 472 24,500 1,320 Climbing Edmonton Center
09:56AM 50.1167 -114.5500 190° South 420 483 25,800 1,200 Climbing Edmonton Center
09:57AM 49.9833 -114.6000 194° South 430 495 26,900 1,200 Climbing Edmonton Center
09:58AM 49.8833 -114.6333 192° South 450 518 28,200 1,200 Climbing Edmonton Center
09:59AM 49.7333 -114.6833 192° South 450 518 29,300 1,020 Climbing Edmonton Center
10:00AM 49.6167 -114.7333 196° South 460 529 30,300 960 Climbing Edmonton Center
10:01AM 49.5000 -114.7833 196° South 470 541 31,300 1,020 Climbing Edmonton Center
10:02AM 49.3500 -114.8333 192° South 470 541 32,400 1,020 Climbing Edmonton Center
10:03AM 49.2333 -114.8500 185° South 470 541 33,400 1,680 Climbing Edmonton Center
10:04AM 49.1167 -114.9000 196° South 460 529 35,800 1,260 Climbing Edmonton Center
10:05AM 48.9833 -114.9500 194° South 440 506 36,000 60 Climbing Edmonton Center
10:06AM 48.8667 -115.0167 201° Southwest 450 518 36,000  Level Edmonton Center
10:07AM 48.8056 -115.0297 188° South 452 520 36,000  Level Seattle Center
10:08AM 48.6872 -115.0872 198° South 451 519 36,000  Level Seattle Center
10:09AM 48.5658 -115.1464 198° South 457 526 36,000  Level Seattle Center
10:10AM 48.4186 -115.2175 198° South 465 535 36,000  Level Seattle Center
10:11AM 48.2958 -115.2769 198° South 467 537 36,000  Level Seattle Center
10:12AM 48.1725 -115.3369 198° South 470 541 36,000  Level Seattle Center
10:13AM 48.0486 -115.3958 198° South 471 542 36,000  Level Seattle Center
10:14AM 47.9300 -115.4514 197° South 471 542 36,000  Level Seattle Center
10:15AM 47.8047 -115.5111 198° South 472 543 36,000  Level Seattle Center
10:16AM 47.6761 -115.5703 197° South 472 543 36,000  Level Seattle Center
10:17AM 47.5514 -115.6292 198° South 474 545 36,000  Level Seattle Center
10:18AM 47.4261 -115.6864 197° South 474 545 36,000  Level Seattle Center
10:19AM 47.3033 -115.7442 198° South 471 542 36,000  Level Seattle Center
10:20AM 47.1767 -115.8014 197° South 472 543 36,000  Level Seattle Center
10:21AM 47.0264 -115.8711 198° South 472 543 36,000  Level Seattle Center
10:22AM 46.9022 -115.9267 197° South 469 540 36,000  Level Seattle Center
10:23AM 46.7800 -115.9811 197° South 462 532 36,000  Level Seattle Center
10:24AM 46.6564 -116.0378 197° South 464 534 36,000  Level Seattle Center
10:25AM 46.5331 -116.0928 197° South 464 534 36,000  Level Seattle Center
10:26AM 46.4114 -116.1467 197° South 460 529 36,000  Level Seattle Center
10:27AM 46.2903 -116.2008 197° South 457 526 36,000  Level Seattle Center
10:28AM 46.1672 -116.2547 197° South 459 528 36,000  Level Seattle Center
10:29AM 46.0467 -116.3081 197° South 455 524 36,000  Level Seattle Center
10:30AM 45.9261 -116.3617 197° South 454 522 36,000  Level Seattle Center
10:31AM 45.8056 -116.4131 197° South 454 522 36,000  Level Seattle Center
10:32AM 45.6606 -116.4761 197° South 454 522 36,000  Level Seattle Center
10:33AM 45.5392 -116.5297 197° South 455 524 36,000  Level Seattle Center
10:34AM 45.4189 -116.5800 196° South 453 521 36,000  Level Seattle Center
10:35AM 45.2761 -116.6428 197° South 449 517 36,000  Level Seattle Center
10:36AM 45.1561 -116.6936 197° South 450 518 36,000  Level Seattle Center
10:37AM 45.0361 -116.7447 197° South 450 518 36,000  Level Seattle Center
10:38AM 44.9169 -116.7942 196° South 447 514 36,000  Level Seattle Center
10:39AM 44.7978 -116.8456 197° South 448 516 36,000  Level Seattle Center
10:40AM 44.6781 -116.8947 196° South 447 514 36,000  Level Seattle Center
10:41AM 44.5622 -116.9436 197° South 446 513 36,000  Level Seattle Center
10:42AM 44.4450 -116.9917 196° South 442 509 36,000  Level Seattle Center
10:43AM 44.3292 -117.0472 199° South 440 506 36,000  Level Seattle Center
10:44AM 44.2153 -117.1042 200° South 438 504 36,000  Level Seattle Center
10:45AM 44.1028 -117.1592 199° South 434 499 36,000  Level Seattle Center
10:46AM 43.9642 -117.2247 199° South 434 499 36,000  Level Seattle Center
10:47AM 43.8486 -117.2797 199° South 436 502 36,000  Level Seattle Center
10:48AM 43.7325 -117.3336 199° South 438 504 36,000  Level Seattle Center
10:49AM 43.6153 -117.3900 199° South 440 506 36,000  Level Seattle Center
10:50AM 43.5000 -117.4447 199° South 440 506 36,000  Level Seattle Center
10:51AM 43.3842 -117.5000 199° South 440 506 36,000  Level Seattle Center
10:52AM 43.2689 -117.5536 199° South 439 505 36,000  Level Seattle Center
10:54AM 43.1536 -117.6072 199° South 439 505 36,000  Level Seattle Center
10:55AM 43.0394 -117.6614 199° South 438 504 36,000  Level Seattle Center
10:55AM 42.9678 -117.6953 199° South 433 498 36,000  Level Salt Lake Center
10:56AM 42.8569 -117.7450 198° South 437 503 36,000  Level Salt Lake Center
10:57AM 42.7297 -117.8044 199° South 434 499 36,000  Level Salt Lake Center
10:58AM 42.6206 -117.8558 199° South 432 497 36,000  Level Salt Lake Center
10:59AM 42.5147 -117.9603 216° Southwest 420 483 36,000  Level Salt Lake Center
11:00AM 42.4319 -118.0608 222° Southwest 418 481 36,000  Level Salt Lake Center
11:01AM 42.3483 -118.1639 222° Southwest 424 488 36,000  Level Salt Lake Center
11:02AM 42.2528 -118.2761 221° Southwest 414 476 36,000  Level Salt Lake Center
11:03AM 42.1714 -118.3733 222° Southwest 409 471 36,000  Level Salt Lake Center
11:04AM 42.0753 -118.4869 221° Southwest 411 473 36,000  Level Salt Lake Center
11:05AM 41.9939 -118.5842 222° Southwest 408 470 36,000  Level Salt Lake Center
11:06AM 41.8981 -118.6978 221° Southwest 410 472 36,000  Level Salt Lake Center
11:07AM 41.8161 -118.7944 221° Southwest 412 474 36,000  Level Salt Lake Center
11:08AM 41.7200 -118.9072 221° Southwest 411 473 36,000  Level Salt Lake Center
11:09AM 41.6358 -119.0053 221° Southwest 416 479 36,000  Level Salt Lake Center
11:11AM 41.5381 -119.1192 221° Southwest 417 480 36,000  Level Salt Lake Center
11:12AM 41.4536 -119.2169 221° Southwest 420 483 36,000  Level Salt Lake Center
11:13AM 41.3544 -119.3311 221° Southwest 421 484 36,000  Level Salt Lake Center
11:13AM 41.2822 -119.4153 221° Southwest 425 489 36,000  Level Seattle Center
11:14AM 41.1928 -119.5175 221° Southwest 424 488 36,000  Level Seattle Center
11:15AM 41.1036 -119.6194 221° Southwest 424 488 36,000  Level Seattle Center
11:16AM 41.0144 -119.7211 221° Southwest 423 487 36,000  Level Seattle Center
11:17AM 40.9256 -119.8228 221° Southwest 423 487 36,000  Level Seattle Center
11:18AM 40.8367 -119.9228 220° Southwest 421 484 36,000  Level Seattle Center
11:20AM 40.7472 -120.0233 220° Southwest 421 484 36,000  Level Seattle Center
11:21AM 40.6578 -120.1225 220° Southwest 420 483 36,000  Level Seattle Center
11:22AM 40.5692 -120.2222 221° Southwest 419 482 36,000  Level Seattle Center
11:23AM 40.4808 -120.3206 220° Southwest 417 480 36,000  Level Seattle Center
11:24AM 40.3942 -120.4161 220° Southwest 411 473 36,000  Level Seattle Center
11:25AM 40.2906 -120.5300 220° Southwest 413 475 36,000  Level Seattle Center
11:26AM 40.2044 -120.6256 220° Southwest 408 470 36,000  Level Seattle Center
11:27AM 40.1172 -120.7200 220° Southwest 407 468 36,000  Level Seattle Center
11:28AM 40.0286 -120.8167 220° Southwest 413 475 36,000  Level Seattle Center
11:29AM 39.9044 -120.9506 220° Southwest 405 466 36,000  Level Oakland Center
11:30AM 39.8172 -121.0450 220° Southwest 408 470 36,000  Level Oakland Center
11:31AM 39.7153 -121.1556 220° Southwest 406 467 36,000  Level Oakland Center
11:32AM 39.6281 -121.2494 220° Southwest 405 466 36,000  Level Oakland Center
11:33AM 39.5406 -121.3444 220° Southwest 408 470 36,000  Level Oakland Center
11:34AM 39.4786 -121.4606 235° Southwest 390 449 36,000  Level Oakland Center
11:35AM 39.4203 -121.5800 238° Southwest 394 453 36,000  Level Oakland Center
11:36AM 39.3617 -121.6958 237° Southwest 389 448 36,000  Level Oakland Center
11:37AM 39.3017 -121.8125 236° Southwest 391 450 36,000  Level Oakland Center
11:38AM 39.2422 -121.9281 236° Southwest 389 448 36,000 -300 Level Oakland Center
11:39AM 39.1519 -122.0167 217° Southwest 413 475 35,500 -840 Descending Oakland Center
11:40AM 39.0325 -122.1128 212° Southwest 422 486 34,300 -1,080 Descending Oakland Center
11:41AM 38.9311 -122.1956 212° Southwest 431 496 33,300 -1,620 Descending Oakland Center
11:42AM 38.8289 -122.2764 212° Southwest 433 498 31,000 -8,280 Descending Oakland Center
11:43AM 38.2261 -122.3644 187° South 196 226 16,400 -6,780 Descending Oakland Center
11:45AM 38.2831 -122.3586 North 203 234 17,200 780 Climbing Oakland Center
11:46AM 38.3417 -122.3536 North 210 242 18,000 780 Climbing Oakland Center
11:47AM 38.4017 -122.3492 North 214 246 18,900 780 Climbing Oakland Center
11:48AM 38.4625 -122.3442 North 219 252 19,700 -360 Climbing Oakland Center
11:49AM 38.2686 -122.7200 237° Southwest 363 418 18,200 720 Descending Oakland Center
11:50AM 38.5819 -122.3336 44° Northeast 216 249 21,200 -2,100 Climbing Oakland Center
11:51AM 38.0856 -122.8439 219° Southwest 346 398 14,000 -3,360 Descending Oakland Center
11:53AM 37.9167 -122.6833 143° Southeast 375 432 11,100 -1,020 Descending Northern Cal TRACON
11:54AM 37.8417 -122.6106 143° Southeast 373 429 11,000 -60 Descending Oakland Center
11:55AM 37.7667 -122.5167 135° Southeast 313 360 11,000  Level Northern Cal TRACON
11:56AM 37.7167 -122.4667 142° Southeast 250 288 11,100  Climbing Northern Cal TRACON
11:57AM 37.6667 -122.4167 142° Southeast 245 282 11,100  Level Northern Cal TRACON
11:58AM 37.6000 -122.3667 149° Southeast 245 282 11,100 -600 Level Northern Cal TRACON
11:59AM 37.5500 -122.3167 142° Southeast 237 273 10,000 -1,200 Descending Northern Cal TRACON
12:00PM 37.5000 -122.2833 152° Southeast 230 265 8,700 -1,500 Descending Northern Cal TRACON
12:01PM 37.4333 -122.2833 180° South 219 252 7,100 -840 Descending Northern Cal TRACON
12:02PM 37.3833 -122.2500 152° Southeast 229 264 7,100  Level Northern Cal TRACON
12:03PM 37.3667 -122.1833 107° East 224 258 7,100  Level Northern Cal TRACON
12:04PM 37.3333 -122.1167 122° Southeast 221 254 7,100  Level Northern Cal TRACON
12:05PM 37.3667 -122.0667 50° Northeast 193 222 7,100 -600 Level Northern Cal TRACON
12:06PM 37.4167 -122.0500 15° North 191 220 6,000 -600 Descending Northern Cal TRACON
12:07PM 37.4667 -122.0333 15° North 194 223 6,000 7,980 Level Northern Cal TRACON
12:08PM 39.7600 -122.4919 351° North 232 267 26,000 -900 Climbing Oakland Center
12:09PM 37.5483 -122.1675 173° South 193 222 3,800 -21,540 Descending Oakland Center